createdAt,value
2022-07-29T00:00:55.475Z,6.35
2022-07-29T00:03:22.881Z,6.00
2022-07-29T00:05:50.332Z,4.55
2022-07-29T00:08:17.677Z,7.07
2022-07-29T00:10:44.985Z,5.72
2022-07-29T00:13:12.372Z,4.82
2022-07-29T00:15:39.769Z,5.50
2022-07-29T00:18:07.371Z,6.18
2022-07-29T00:20:34.753Z,5.28
2022-07-29T00:23:01.999Z,6.60
2022-07-29T00:25:29.280Z,6.35
2022-07-29T00:27:56.611Z,4.97
2022-07-29T00:30:24.087Z,5.85
2022-07-29T00:32:51.371Z,5.05
2022-07-29T00:35:37.124Z,5.25
2022-07-29T00:38:04.457Z,4.82
2022-07-29T00:40:31.805Z,6.65
2022-07-29T00:42:59.344Z,5.75
2022-07-29T00:45:30.937Z,5.30
2022-07-29T00:47:58.320Z,6.03
2022-07-29T00:50:26.185Z,6.35
2022-07-29T00:52:54.074Z,5.95
2022-07-29T00:55:21.598Z,4.70
2022-07-29T00:57:49.030Z,4.47
2022-07-29T01:00:22.799Z,4.68
2022-07-29T01:02:50.463Z,6.40
2022-07-29T01:05:20.018Z,5.45
2022-07-29T01:07:49.401Z,5.38
2022-07-29T01:10:17.496Z,5.43
2022-07-29T01:12:47.105Z,5.35
2022-07-29T01:15:14.619Z,5.22
2022-07-29T01:18:00.274Z,4.80
2022-07-29T01:21:05.032Z,5.47
2022-07-29T01:24:10.574Z,5.95
2022-07-29T01:27:05.829Z,4.20
2022-07-29T01:29:38.738Z,5.53
2022-07-29T01:32:27.667Z,5.75
2022-07-29T01:35:26.751Z,5.60
2022-07-29T01:38:10.713Z,5.28
2022-07-29T01:41:10.354Z,4.97
2022-07-29T01:43:45.154Z,4.88
2022-07-29T01:46:21.256Z,5.18
2022-07-29T01:48:54.441Z,5.72
2022-07-29T01:51:30.034Z,5.68
2022-07-29T01:54:19.803Z,6.28
2022-07-29T01:56:51.939Z,5.55
2022-07-29T01:59:21.538Z,4.63
2022-07-29T02:01:54.334Z,5.88
2022-07-29T02:04:29.169Z,4.43
2022-07-29T02:07:03.103Z,4.50
2022-07-29T02:09:32.858Z,5.70
2022-07-29T02:12:02.373Z,6.38
2022-07-29T02:14:34.710Z,5.28
2022-07-29T02:17:03.152Z,5.22
2022-07-29T02:19:34.063Z,6.15
2022-07-29T02:22:03.092Z,6.15
2022-07-29T02:24:31.984Z,6.60
2022-07-29T02:27:01.186Z,5.50
2022-07-29T02:29:31.241Z,5.57
2022-07-29T02:32:00.593Z,5.68
2022-07-29T02:34:29.236Z,5.57
2022-07-29T02:36:57.040Z,4.93
2022-07-29T02:39:27.165Z,4.78
2022-07-29T02:42:04.492Z,4.88
2022-07-29T02:44:34.895Z,4.88
2022-07-29T02:47:14.997Z,4.63
2022-07-29T02:49:47.577Z,6.65
2022-07-29T02:54:59.564Z,4.57
2022-07-29T02:57:54.424Z,6.75
2022-07-29T03:00:28.052Z,5.25
2022-07-29T03:05:27.918Z,5.43
2022-07-29T03:08:06.828Z,6.55
2022-07-29T03:10:34.987Z,4.88
2022-07-29T03:13:02.949Z,6.13
2022-07-29T03:15:33.870Z,5.53
2022-07-29T03:18:01.571Z,5.30
2022-07-29T03:20:29.015Z,5.63
2022-07-29T03:22:56.378Z,6.00
2022-07-29T03:25:23.733Z,6.47
2022-07-29T03:27:51.055Z,4.70
2022-07-29T03:30:22.117Z,6.55
2022-07-29T03:32:52.202Z,6.65
2022-07-29T03:35:21.454Z,6.30
2022-07-29T03:37:49.259Z,7.38
2022-07-29T03:40:26.813Z,5.20
2022-07-29T03:42:56.475Z,5.82
2022-07-29T03:45:25.273Z,8.15
2022-07-29T03:48:02.197Z,6.05
2022-07-29T03:50:34.610Z,6.32
2022-07-29T03:53:02.931Z,5.78
2022-07-29T03:55:37.403Z,6.72
2022-07-29T03:58:05.653Z,8.38
2022-07-29T04:00:34.428Z,6.60
2022-07-29T04:03:03.061Z,7.28
2022-07-29T04:05:30.530Z,6.97
2022-07-29T04:07:57.914Z,8.98
2022-07-29T04:10:31.493Z,8.05
2022-07-29T04:13:00.608Z,7.63
2022-07-29T04:15:30.942Z,7.00
2022-07-29T04:17:59.954Z,6.45
2022-07-29T04:20:27.400Z,6.93
2022-07-29T04:22:54.733Z,6.32
2022-07-29T04:25:22.103Z,8.15
2022-07-29T04:28:01.289Z,8.82
2022-07-29T04:30:29.550Z,6.45
2022-07-29T04:32:56.949Z,9.05
2022-07-29T04:35:24.322Z,7.13
2022-07-29T04:37:51.665Z,6.78
2022-07-29T04:40:19.044Z,8.73
2022-07-29T04:42:47.828Z,6.60
2022-07-29T04:45:16.089Z,6.63
2022-07-29T04:47:43.675Z,6.88
2022-07-29T04:50:11.453Z,9.23
2022-07-29T04:52:39.015Z,7.05
2022-07-29T04:55:06.801Z,6.80
2022-07-29T04:57:34.120Z,7.35
2022-07-29T05:00:02.023Z,8.50
2022-07-29T05:02:29.331Z,8.63
2022-07-29T05:04:56.642Z,6.03
2022-07-29T05:07:23.983Z,5.70
2022-07-29T05:09:51.414Z,7.15
2022-07-29T05:12:18.898Z,7.07
2022-07-29T05:14:46.253Z,5.75
2022-07-29T05:17:13.671Z,7.72
2022-07-29T05:19:41.008Z,6.72
2022-07-29T05:22:08.367Z,6.22
2022-07-29T05:24:35.708Z,7.43
2022-07-29T05:27:03.010Z,8.70
2022-07-29T05:29:43.683Z,7.97
2022-07-29T05:32:13.446Z,9.00
2022-07-29T05:34:50.329Z,8.95
2022-07-29T05:37:21.857Z,6.50
2022-07-29T05:39:56.877Z,6.40
2022-07-29T05:42:25.794Z,7.78
2022-07-29T05:44:53.438Z,7.50
2022-07-29T05:47:20.766Z,8.10
2022-07-29T05:49:48.663Z,6.07
2022-07-29T05:52:16.150Z,8.13
2022-07-29T05:54:43.731Z,7.43
2022-07-29T05:57:22.225Z,8.00
2022-07-29T05:59:50.893Z,7.05
2022-07-29T06:02:18.764Z,8.15
2022-07-29T06:04:46.355Z,6.18
2022-07-29T06:07:13.824Z,6.38
2022-07-29T06:09:41.120Z,8.70
2022-07-29T06:12:08.543Z,8.07
2022-07-29T06:14:36.420Z,8.75
2022-07-29T06:17:03.775Z,7.13
2022-07-29T06:19:31.278Z,7.15
2022-07-29T06:21:58.868Z,9.68
2022-07-29T06:24:26.330Z,11.88
2022-07-29T06:26:53.932Z,8.98
2022-07-29T06:29:21.355Z,8.80
2022-07-29T06:31:48.649Z,8.43
2022-07-29T06:34:16.856Z,8.20
2022-07-29T06:36:45.119Z,7.72
2022-07-29T06:39:13.479Z,10.68
2022-07-29T06:41:40.989Z,8.95
2022-07-29T06:44:10.998Z,12.32
2022-07-29T06:46:38.472Z,13.60
2022-07-29T06:49:06.036Z,12.38
2022-07-29T06:51:33.804Z,12.63
2022-07-29T06:54:02.744Z,11.23
2022-07-29T06:56:38.559Z,11.20
2022-07-29T06:59:11.575Z,9.30
2022-07-29T07:01:41.297Z,10.60
2022-07-29T07:04:09.949Z,12.85
2022-07-29T07:06:37.769Z,11.55
2022-07-29T07:09:05.410Z,10.60
2022-07-29T07:11:32.962Z,11.82
2022-07-29T07:14:03.485Z,14.60
2022-07-29T07:16:32.853Z,10.75
2022-07-29T07:19:00.937Z,11.23
2022-07-29T07:21:30.197Z,10.68
2022-07-29T07:23:58.880Z,8.85
2022-07-29T07:26:27.000Z,8.43
2022-07-29T07:28:54.387Z,8.50
2022-07-29T07:31:24.610Z,10.23
2022-07-29T07:33:53.159Z,10.63
2022-07-29T07:36:20.705Z,8.70
2022-07-29T07:38:47.998Z,11.73
2022-07-29T07:41:15.282Z,11.07
2022-07-29T07:43:42.568Z,9.90
2022-07-29T07:46:09.922Z,8.63
2022-07-29T07:48:37.501Z,8.38
2022-07-29T07:51:04.816Z,9.50
2022-07-29T07:53:32.553Z,7.57
2022-07-29T07:56:10.374Z,9.57
2022-07-29T07:58:39.633Z,6.72
2022-07-29T08:01:07.327Z,8.90
2022-07-29T08:03:35.114Z,8.07
2022-07-29T08:06:03.284Z,7.18
2022-07-29T08:08:30.679Z,6.97
2022-07-29T08:10:58.034Z,6.82
2022-07-29T08:13:29.272Z,7.53
2022-07-29T08:16:01.864Z,6.88
2022-07-29T08:20:57.767Z,7.05
2022-07-29T08:23:25.387Z,8.23
2022-07-29T08:25:54.809Z,13.50
2022-07-29T08:28:26.027Z,8.50
2022-07-29T08:30:53.682Z,8.23
2022-07-29T08:33:21.034Z,8.07
2022-07-29T08:35:48.293Z,9.60
2022-07-29T08:38:15.606Z,6.97
2022-07-29T08:40:42.930Z,5.53
2022-07-29T08:43:10.342Z,7.43
2022-07-29T08:45:47.141Z,9.02
2022-07-29T08:48:16.219Z,7.32
2022-07-29T08:50:46.180Z,10.05
2022-07-29T08:53:16.139Z,9.75
2022-07-29T08:55:49.644Z,9.68
2022-07-29T08:58:18.172Z,7.65
2022-07-29T09:00:56.139Z,5.93
2022-07-29T09:03:32.605Z,6.30
2022-07-29T09:06:00.422Z,8.10
2022-07-29T09:08:28.183Z,8.50
2022-07-29T09:10:56.834Z,9.40
2022-07-29T09:13:24.261Z,7.05
2022-07-29T09:15:51.776Z,5.82
2022-07-29T09:18:37.604Z,5.93
2022-07-29T09:21:25.316Z,6.03
2022-07-29T09:24:08.306Z,7.10
2022-07-29T09:26:41.128Z,7.25
2022-07-29T09:29:23.349Z,5.50
2022-07-29T09:31:53.617Z,7.45
2022-07-29T09:34:27.414Z,7.03
2022-07-29T09:36:56.763Z,6.00
2022-07-29T09:39:46.792Z,7.93
2022-07-29T09:42:16.816Z,7.32
2022-07-29T09:44:47.080Z,6.88
2022-07-29T09:47:15.011Z,6.38
2022-07-29T09:49:51.485Z,8.52
2022-07-29T09:52:18.748Z,8.05
2022-07-29T09:54:46.254Z,6.38
2022-07-29T09:57:30.929Z,6.55
2022-07-29T10:00:02.815Z,7.65
2022-07-29T10:02:41.963Z,5.18
2022-07-29T10:05:24.993Z,6.38
2022-07-29T10:07:57.788Z,8.52
2022-07-29T10:10:26.455Z,4.90
2022-07-29T10:12:57.763Z,7.60
2022-07-29T10:15:29.794Z,6.13
2022-07-29T10:17:59.894Z,5.60
2022-07-29T10:20:28.745Z,6.78
2022-07-29T10:22:56.712Z,6.28
2022-07-29T10:25:25.659Z,6.60
2022-07-29T10:27:54.272Z,6.65
2022-07-29T10:30:24.074Z,6.43
2022-07-29T10:33:03.403Z,6.53
2022-07-29T10:35:39.726Z,5.30
2022-07-29T10:38:38.559Z,5.30
2022-07-29T10:41:36.296Z,7.97
2022-07-29T10:44:23.095Z,7.60
2022-07-29T10:46:52.622Z,6.97
2022-07-29T10:49:25.221Z,5.22
2022-07-29T10:52:11.510Z,4.63
2022-07-29T10:54:49.242Z,5.93
2022-07-29T10:57:21.537Z,6.57
2022-07-29T11:00:11.582Z,6.50
2022-07-29T11:02:44.759Z,6.00
2022-07-29T11:05:19.885Z,6.22
2022-07-29T11:08:19.612Z,10.93
2022-07-29T11:10:52.689Z,6.47
2022-07-29T11:16:09.939Z,7.47
2022-07-29T11:19:13.745Z,7.43
2022-07-29T11:21:53.900Z,5.22
2022-07-29T11:24:28.746Z,6.07
2022-07-29T11:27:18.019Z,7.38
2022-07-29T11:29:53.640Z,5.93
2022-07-29T11:35:37.215Z,6.90
2022-07-29T11:38:23.420Z,5.72
2022-07-29T11:41:25.181Z,5.75
2022-07-29T11:43:56.953Z,5.28
2022-07-29T11:46:49.981Z,6.93
2022-07-29T11:49:32.263Z,5.50
2022-07-29T11:52:04.841Z,5.85
2022-07-29T11:54:57.345Z,6.40
2022-07-29T11:57:22.149Z,6.72
2022-07-29T11:59:49.741Z,5.40
2022-07-29T12:02:37.292Z,5.38
2022-07-29T12:05:10.582Z,4.95
2022-07-29T12:07:39.526Z,5.20
2022-07-29T12:10:11.657Z,5.97
2022-07-29T12:12:57.010Z,5.75
2022-07-29T12:15:43.157Z,5.07
2022-07-29T12:18:19.325Z,5.43
2022-07-29T12:20:48.851Z,5.10
2022-07-29T12:23:17.501Z,5.22
2022-07-29T12:25:50.015Z,5.28
2022-07-29T12:28:26.907Z,5.15
2022-07-29T12:30:55.331Z,5.57
2022-07-29T12:33:25.240Z,5.47
2022-07-29T12:36:07.213Z,4.93
2022-07-29T12:38:36.987Z,5.00
2022-07-29T12:41:05.005Z,5.00
2022-07-29T12:43:32.848Z,4.78
2022-07-29T12:46:17.427Z,5.03
2022-07-29T12:48:45.215Z,5.65
2022-07-29T12:51:15.380Z,5.30
2022-07-29T12:54:05.075Z,5.35
2022-07-29T12:56:42.678Z,4.95
2022-07-29T12:59:14.524Z,4.90
2022-07-29T13:01:42.051Z,4.60
2022-07-29T13:04:09.405Z,4.65
2022-07-29T13:06:46.092Z,5.10
2022-07-29T13:09:23.470Z,4.43
2022-07-29T13:11:53.555Z,5.15
2022-07-29T13:14:34.377Z,5.20
2022-07-29T13:17:08.911Z,7.20
2022-07-29T13:19:41.161Z,4.82
2022-07-29T13:22:16.362Z,5.28
2022-07-29T13:24:50.425Z,5.15
2022-07-29T13:27:19.618Z,6.25
2022-07-29T13:29:47.795Z,5.05
2022-07-29T13:32:15.606Z,4.75
2022-07-29T13:34:42.925Z,5.20
2022-07-29T13:37:10.298Z,4.95
2022-07-29T13:39:38.377Z,4.68
2022-07-29T13:42:10.730Z,5.63
2022-07-29T13:44:39.090Z,4.90
2022-07-29T13:47:07.868Z,4.93
2022-07-29T13:49:36.049Z,5.15
2022-07-29T13:52:04.440Z,5.00
2022-07-29T13:54:31.817Z,5.47
2022-07-29T13:57:13.786Z,4.90
2022-07-29T13:59:42.995Z,4.65
2022-07-29T14:02:11.280Z,6.65
2022-07-29T14:04:39.481Z,5.05
2022-07-29T14:07:07.854Z,4.13
2022-07-29T14:09:41.521Z,5.28
2022-07-29T14:12:10.019Z,5.22
2022-07-29T14:14:37.785Z,5.18
2022-07-29T14:17:07.748Z,4.47
2022-07-29T14:19:39.300Z,4.43
2022-07-29T14:22:09.076Z,5.35
2022-07-29T14:24:37.788Z,5.68
2022-07-29T14:27:06.485Z,5.25
2022-07-29T14:29:37.550Z,6.15
2022-07-29T14:32:11.151Z,5.27
2022-07-29T14:34:39.595Z,4.75
2022-07-29T14:37:07.586Z,4.22
2022-07-29T14:39:42.486Z,4.90
2022-07-29T14:42:12.981Z,5.07
2022-07-29T14:44:42.381Z,4.63
2022-07-29T14:47:10.361Z,4.70
2022-07-29T14:49:37.726Z,5.03
2022-07-29T14:52:05.509Z,4.63
2022-07-29T14:54:32.834Z,4.55
2022-07-29T14:57:00.150Z,4.68
2022-07-29T14:59:27.649Z,5.88
2022-07-29T15:01:56.742Z,4.53
2022-07-29T15:04:24.240Z,4.20
2022-07-29T15:06:51.503Z,5.60
2022-07-29T15:09:19.119Z,4.68
2022-07-29T15:11:46.449Z,5.22
2022-07-29T15:14:13.758Z,4.90
2022-07-29T15:16:43.965Z,4.45
2022-07-29T15:19:15.374Z,4.82
2022-07-29T15:21:59.312Z,4.28
2022-07-29T15:24:27.203Z,5.05
2022-07-29T15:26:55.288Z,4.40
2022-07-29T15:29:23.328Z,4.38
2022-07-29T15:31:50.848Z,4.40
2022-07-29T15:34:18.251Z,4.78
2022-07-29T15:36:53.626Z,4.85
2022-07-29T15:39:22.288Z,4.47
2022-07-29T15:41:50.541Z,6.00
2022-07-29T15:44:18.379Z,4.10
2022-07-29T15:47:03.892Z,5.28
2022-07-29T15:49:47.497Z,4.50
2022-07-29T15:52:26.087Z,5.90
2022-07-29T15:54:57.805Z,4.47
2022-07-29T15:57:25.703Z,4.97
2022-07-29T15:59:53.418Z,5.75
2022-07-29T16:02:20.910Z,5.13
2022-07-29T16:04:48.721Z,6.03
2022-07-29T16:07:16.194Z,4.57
2022-07-29T16:09:49.307Z,7.22
2022-07-29T16:12:18.443Z,6.10
2022-07-29T16:14:50.923Z,4.68
2022-07-29T16:17:19.496Z,5.10
2022-07-29T16:19:47.046Z,5.22
2022-07-29T16:22:14.374Z,5.03
2022-07-29T16:24:41.783Z,4.47
2022-07-29T16:27:09.232Z,4.80
2022-07-29T16:29:37.331Z,4.80
2022-07-29T16:32:06.043Z,6.00
2022-07-29T16:34:33.648Z,6.15
2022-07-29T16:37:01.149Z,4.30
2022-07-29T16:39:28.544Z,4.50
2022-07-29T16:41:59.857Z,8.48
2022-07-29T16:44:28.649Z,6.18
2022-07-29T16:46:59.308Z,5.78
2022-07-29T16:49:28.089Z,7.93
2022-07-29T16:51:55.584Z,6.15
2022-07-29T16:54:23.032Z,6.85
2022-07-29T16:56:50.346Z,6.38
2022-07-29T16:59:17.687Z,6.85
2022-07-29T17:01:45.002Z,6.38
2022-07-29T17:04:14.868Z,6.20
2022-07-29T17:06:42.526Z,6.22
2022-07-29T17:09:11.942Z,7.00
2022-07-29T17:11:52.374Z,6.38
2022-07-29T17:14:26.875Z,5.75
2022-07-29T17:17:01.109Z,6.05
2022-07-29T17:19:32.035Z,6.72
2022-07-29T17:22:08.913Z,6.10
2022-07-29T17:24:36.452Z,7.10
2022-07-29T17:27:04.066Z,7.90
2022-07-29T17:29:31.717Z,8.73
2022-07-29T17:32:00.067Z,6.07
2022-07-29T17:34:27.406Z,9.88
2022-07-29T17:36:54.734Z,9.48
2022-07-29T17:39:22.155Z,6.85
2022-07-29T17:41:49.666Z,9.05
2022-07-29T17:44:17.516Z,11.20
2022-07-29T17:46:44.917Z,8.40
2022-07-29T17:49:12.366Z,10.98
2022-07-29T17:51:39.756Z,11.02
2022-07-29T17:54:07.021Z,9.07
2022-07-29T17:56:34.425Z,10.55
2022-07-29T17:59:06.524Z,9.00
2022-07-29T18:01:34.564Z,11.55
2022-07-29T18:04:02.879Z,9.88
2022-07-29T18:06:30.195Z,13.07
2022-07-29T18:08:57.576Z,9.05
2022-07-29T18:11:24.889Z,10.98
2022-07-29T18:13:52.615Z,9.95
2022-07-29T18:16:20.154Z,10.80
2022-07-29T18:18:47.447Z,10.43
2022-07-29T18:21:15.042Z,14.10
2022-07-29T18:23:42.477Z,10.40
2022-07-29T18:26:09.921Z,9.45
2022-07-29T18:28:37.270Z,12.00
2022-07-29T18:31:07.327Z,10.95
2022-07-29T18:33:34.674Z,10.30
2022-07-29T18:36:10.616Z,8.93
2022-07-29T18:38:41.005Z,8.48
2022-07-29T18:41:08.392Z,11.40
2022-07-29T18:43:36.125Z,8.85
2022-07-29T18:46:05.350Z,9.55
2022-07-29T18:48:34.072Z,10.30
2022-07-29T18:51:01.708Z,11.00
2022-07-29T18:53:29.056Z,10.63
2022-07-29T18:56:00.265Z,10.13
2022-07-29T18:58:27.777Z,9.73
2022-07-29T19:00:55.063Z,10.05
2022-07-29T19:03:22.689Z,13.63
2022-07-29T19:05:50.204Z,12.32
2022-07-29T19:08:17.549Z,13.27
2022-07-29T19:10:44.942Z,12.45
2022-07-29T19:13:13.468Z,11.40
2022-07-29T19:15:41.060Z,10.45
2022-07-29T19:18:08.537Z,12.15
2022-07-29T19:20:36.302Z,10.70
2022-07-29T19:23:03.617Z,10.25
2022-07-29T19:25:31.694Z,11.50
2022-07-29T19:28:03.811Z,9.10
2022-07-29T19:30:31.327Z,9.93
2022-07-29T19:32:59.135Z,9.65
2022-07-29T19:35:31.284Z,10.70
2022-07-29T19:38:01.235Z,10.25
2022-07-29T19:40:29.689Z,8.95
2022-07-29T19:42:57.579Z,8.98
2022-07-29T19:45:26.033Z,8.82
2022-07-29T19:47:59.040Z,8.73
2022-07-29T19:50:28.987Z,10.85
2022-07-29T19:52:56.503Z,8.70
2022-07-29T19:55:23.901Z,11.30
2022-07-29T19:57:53.001Z,8.63
2022-07-29T20:00:21.203Z,7.93
2022-07-29T20:02:48.635Z,8.32
2022-07-29T20:05:16.159Z,8.30
2022-07-29T20:07:43.730Z,8.95
2022-07-29T20:10:11.131Z,12.18
2022-07-29T20:12:38.740Z,11.38
2022-07-29T20:15:10.607Z,10.20
2022-07-29T20:17:44.218Z,11.38
2022-07-29T20:20:11.873Z,11.65
2022-07-29T20:22:39.263Z,11.55
2022-07-29T20:25:09.768Z,15.50
2022-07-29T20:27:40.410Z,10.52
2022-07-29T20:30:09.008Z,11.27
2022-07-29T20:32:38.477Z,12.85
2022-07-29T20:35:06.564Z,13.35
2022-07-29T20:37:33.907Z,18.42
2022-07-29T20:40:19.964Z,11.60
2022-07-29T20:42:47.416Z,12.35
2022-07-29T20:45:14.760Z,11.43
2022-07-29T20:47:42.226Z,10.88
2022-07-29T20:50:10.208Z,11.60
2022-07-29T20:52:40.554Z,11.10
2022-07-29T20:55:09.076Z,9.82
2022-07-29T20:57:39.744Z,11.43
2022-07-29T21:00:09.144Z,11.75
2022-07-29T21:02:36.805Z,9.88
2022-07-29T21:05:05.799Z,11.10
2022-07-29T21:07:33.280Z,12.40
2022-07-29T21:10:00.599Z,10.02
2022-07-29T21:12:30.171Z,11.80
2022-07-29T21:14:57.900Z,10.80
2022-07-29T21:17:25.278Z,11.38
2022-07-29T21:19:53.322Z,10.80
2022-07-29T21:22:22.389Z,11.40
2022-07-29T21:24:50.279Z,11.68
2022-07-29T21:27:38.260Z,12.52
2022-07-29T21:30:07.913Z,10.73
2022-07-29T21:32:35.352Z,12.43
2022-07-29T21:35:03.609Z,11.85
2022-07-29T21:37:42.722Z,9.80
2022-07-29T21:40:10.755Z,10.32
2022-07-29T21:42:38.147Z,10.85
2022-07-29T21:45:06.508Z,10.77
2022-07-29T21:47:33.907Z,10.00
2022-07-29T21:50:01.354Z,9.82
2022-07-29T21:52:28.761Z,9.68
2022-07-29T21:54:56.356Z,10.65
2022-07-29T21:57:23.736Z,8.80
2022-07-29T21:59:51.119Z,9.50
2022-07-29T22:02:18.571Z,9.43
2022-07-29T22:04:45.904Z,9.93
2022-07-29T22:07:14.585Z,10.38
2022-07-29T22:09:42.002Z,10.75
2022-07-29T22:12:09.997Z,10.93
2022-07-29T22:14:37.393Z,11.45
2022-07-29T22:17:04.840Z,10.68
2022-07-29T22:19:32.230Z,10.48
2022-07-29T22:21:59.737Z,10.65
2022-07-29T22:24:27.065Z,10.57
2022-07-29T22:26:54.447Z,11.18
2022-07-29T22:29:21.804Z,10.95
2022-07-29T22:31:49.213Z,9.20
2022-07-29T22:34:16.547Z,10.43
2022-07-29T22:36:43.849Z,9.10
2022-07-29T22:39:11.180Z,11.02
2022-07-29T22:41:42.944Z,10.57
2022-07-29T22:44:10.389Z,10.82
2022-07-29T22:46:37.902Z,10.32
2022-07-29T22:49:06.863Z,10.27
2022-07-29T22:51:34.578Z,9.50
2022-07-29T22:54:03.190Z,10.52
2022-07-29T22:56:31.004Z,10.82
2022-07-29T22:58:58.376Z,9.93
2022-07-29T23:01:35.811Z,9.43
2022-07-29T23:04:05.988Z,7.47
2022-07-29T23:06:34.256Z,8.95
2022-07-29T23:09:01.754Z,9.52
2022-07-29T23:11:29.090Z,6.40
2022-07-29T23:13:56.382Z,7.50
2022-07-29T23:16:26.768Z,6.50
2022-07-29T23:18:54.963Z,6.18
2022-07-29T23:21:22.358Z,7.45
2022-07-29T23:23:49.747Z,4.97
2022-07-29T23:26:17.230Z,5.63
2022-07-29T23:28:45.469Z,6.40
2022-07-29T23:31:13.689Z,5.28
2022-07-29T23:33:42.029Z,5.30
2022-07-29T23:36:09.389Z,6.05
2022-07-29T23:38:40.923Z,5.32
2022-07-29T23:41:09.879Z,5.50
2022-07-29T23:43:38.075Z,6.47
2022-07-29T23:46:06.418Z,5.30
2022-07-29T23:48:34.657Z,4.97
2022-07-29T23:51:02.085Z,4.85
2022-07-29T23:53:29.462Z,5.70
2022-07-29T23:55:59.531Z,5.30
2022-07-29T23:58:26.984Z,5.20
